Caribbean Princess — ZCDG8 — position and weather

sailwx.info

Track history (hours):
 
Tides and Currents Weather Stations Pressure Air Temp Water Temp Dewpoint Dewpoint Depression Visibility Wind Speed Wind Dir Waves Ship Positions

Caribbean Princess

Operator: Princess Cruises

Last reported at 2017-Oct-21 22:55 UTC. Time now 2017-Oct-23 02:09 UTC.
Position N 26°09' W 079°29'.

Type: Passenger vessel. MMSI: 310423000.

Date/timePositionNaut miles runAvg speedWind from/ knotsBaromVisibWave heightAir tempDewpointWater temp
2017-Oct-21 22:55N 26°09' W 079°29'818.1
2017-Oct-21 22:30N 26°08' W 079°37'918.1
2017-Oct-21 22:00N 26°07' W 079°47'918.1
2017-Oct-21 21:30N 26°06' W 079°57'714.3
2017-Oct-21 21:00N 26°05' W 080°05'2 3.3
2017-Oct-21 20:23N 26°05' W 080°07'0 0.0
2017-Oct-21 19:56N 26°05' W 080°07'0 0.0
2017-Oct-21 19:26N 26°05' W 080°07'0 0.0
2017-Oct-21 18:56N 26°05' W 080°07'0 0.0
2017-Oct-21 18:26N 26°05' W 080°07'0 0.0
2017-Oct-21 17:59N 26°05' W 080°07'0 0.0
2017-Oct-21 17:29N 26°05' W 080°07'0 0.0
2017-Oct-21 16:59N 26°05' W 080°07'0 0.0
2017-Oct-21 16:29N 26°05' W 080°07'0 0.0
2017-Oct-21 15:59N 26°05' W 080°07'0 0.0
2017-Oct-21 15:26N 26°05' W 080°07'0 0.0
2017-Oct-21 14:59N 26°05' W 080°07'0 0.0
2017-Oct-21 14:29N 26°05' W 080°07'0 0.0
2017-Oct-21 13:29N 26°05' W 080°07'0 0.0
2017-Oct-21 12:59N 26°05' W 080°07'0 0.0
2017-Oct-21 12:29N 26°05' W 080°07'0 0.0
2017-Oct-21 11:59N 26°05' W 080°07'0 0.0
2017-Oct-21 11:29N 26°05' W 080°07'0 0.0
2017-Oct-21 10:50N 26°05' W 080°07'0 0.0
2017-Oct-21 10:20N 26°05' W 080°07'0 0.2
2017-Oct-21 10:00N 26°05' W 080°07'3 5.1
2017-Oct-21 09:30N 26°06' W 080°04'5 9.6
2017-Oct-21 09:00N 26°05' W 079°59'510.8
2017-Oct-21 08:30N 26°05' W 079°53'816.2
2017-Oct-21 08:00N 25°60' W 079°46'918.3
2017-Oct-21 07:30N 25°53' W 079°39'919.3
2017-Oct-21 07:00N 25°44' W 079°37'1019.2
2017-Oct-21 06:30N 25°34' W 079°35'918.7
2017-Oct-21 06:00N 25°25' W 079°33'  
2017-Oct-18 15:00N 12°30' W 070°00'151 4.2 090 / 301010.810.8 31.025.430.0
2017-Oct-17 03:00N 11°36' W 067°36'23012.1 090 / 201012.710.8 29.023.229.0
2017-Oct-16 08:00N 11°24' W 063°42'6513.0 100 / 201011.010.8 28.023.729.0
2017-Oct-16 03:00N 11°18' W 062°36'123 5.1 110 / 201009.410.8 27.024.129.0
2017-Oct-15 03:00N 11°54' W 060°36'105 4.4 090 / 201009.810.8 29.024.830.0
2017-Oct-14 03:00N 13°36' W 061°00'5214.3 080 / 181010.810.8 27.024.129.0
2017-Oct-13 23:21N 14°23' W 061°22'810.3
2017-Oct-13 22:33N 14°31' W 061°19'111.1
2017-Oct-13 22:30N 14°31' W 061°18'612.3
2017-Oct-13 22:01N 14°33' W 061°13'712.2
2017-Oct-13 21:28N 14°35' W 061°06'2 4.1
2017-Oct-13 21:00N 14°36' W 061°04'0 0.0
2017-Oct-13 20:30N 14°36' W 061°04'0 0.0
2017-Oct-13 20:00N 14°36' W 061°04'0 0.0
2017-Oct-13 17:02N 14°36' W 061°04'0 0.0
2017-Oct-13 17:00N 14°36' W 061°04'0 0.0
2017-Oct-13 16:29N 14°36' W 061°04'0 0.0
2017-Oct-13 15:59N 14°36' W 061°04'0 0.0
2017-Oct-13 15:29N 14°36' W 061°04'0 0.0
2017-Oct-13 14:59N 14°36' W 061°04'0 0.0
2017-Oct-13 14:29N 14°36' W 061°04'0 0.0
2017-Oct-13 13:51N 14°36' W 061°04'0 0.0
2017-Oct-13 13:28N 14°36' W 061°04'0 0.0
2017-Oct-13 12:58N 14°36' W 061°04'0 0.0
2017-Oct-13 12:28N 14°36' W 061°04'0 0.0
2017-Oct-13 11:58N 14°36' W 061°04'0 0.0
2017-Oct-13 11:19N 14°36' W 061°04'0 1.4
2017-Oct-13 11:00N 14°36' W 061°05'5 9.9
2017-Oct-13 10:30N 14°36' W 061°10'612.7
2017-Oct-13 10:00N 14°39' W 061°16'9213.1
2017-Oct-13 03:00N 16°00' W 062°00'915.1 050 / 171011.410.8 29.027.630.0
2017-Oct-13 02:22N 16°09' W 062°02'513.8
2017-Oct-13 02:00N 16°14' W 062°02'714.2
2017-Oct-13 01:30N 16°21' W 062°03'714.0
2017-Oct-13 01:00N 16°28' W 062°03'713.6
2017-Oct-13 00:30N 16°35' W 062°03'713.4
2017-Oct-13 00:00N 16°42' W 062°02'713.5
2017-Oct-12 23:30N 16°49' W 062°02'713.5
2017-Oct-12 23:01N 16°55' W 062°02'713.3
2017-Oct-12 22:31N 17°02' W 062°01'612.6
2017-Oct-12 22:01N 17°08' W 061°59'611.5
2017-Oct-12 21:31N 17°08' W 061°53'2 3.9
2017-Oct-12 20:59N 17°07' W 061°51'0 0.0
2017-Oct-12 20:29N 17°07' W 061°51'0 0.0
2017-Oct-12 19:59N 17°07' W 061°51'0 0.0
2017-Oct-12 19:29N 17°07' W 061°51'0 0.0
2017-Oct-12 18:59N 17°07' W 061°51'0 0.0
2017-Oct-12 18:29N 17°07' W 061°51'0 0.0
2017-Oct-12 17:59N 17°07' W 061°51'0 0.0
2017-Oct-12 17:29N 17°07' W 061°51'0 0.0
2017-Oct-12 16:59N 17°07' W 061°51'0 0.0
2017-Oct-12 16:29N 17°07' W 061°51'0 0.0
2017-Oct-12 15:59N 17°07' W 061°51'0 0.0
2017-Oct-12 15:29N 17°07' W 061°51'0 0.0
2017-Oct-12 15:01N 17°07' W 061°51'0 0.0
2017-Oct-12 14:26N 17°07' W 061°51'0 0.0
2017-Oct-12 13:59N 17°07' W 061°51'0 0.0
2017-Oct-12 13:28N 17°07' W 061°51'0 0.0
2017-Oct-12 12:58N 17°07' W 061°51'0 0.0
2017-Oct-12 12:28N 17°07' W 061°51'0 0.0
2017-Oct-12 11:52N 17°07' W 061°51'0 0.0
2017-Oct-12 11:28N 17°07' W 061°51'1 1.6
2017-Oct-12 11:00N 17°07' W 061°52'5 9.3
2017-Oct-12 10:30N 17°09' W 061°56'611.5
2017-Oct-12 10:00N 17°11' W 062°02'611.1
2017-Oct-12 09:30N 17°13' W 062°07'611.2
2017-Oct-12 09:00N 17°08' W 062°10'612.0
2017-Oct-12 08:30N 17°02' W 062°11'611.8
2017-Oct-12 08:00N 16°56' W 062°13'611.8
2017-Oct-12 07:30N 16°52' W 062°17'611.7
2017-Oct-12 07:00N 16°48' W 062°22'611.6
2017-Oct-12 06:30N 16°44' W 062°26'611.6
2017-Oct-12 06:00N 16°41' W 062°31'611.6
2017-Oct-12 05:30N 16°37' W 062°35'611.7
2017-Oct-12 05:00N 16°33' W 062°40'611.0
2017-Oct-12 04:28N 16°30' W 062°45'511.2
2017-Oct-12 04:00N 16°31' W 062°51'3181.3
2017-Oct-12 04:00N 16°30' W 062°48'917.7 080 / 101012.110.8 29.027.630.0
2017-Oct-12 03:30N 16°35' W 062°56'  
Track history (hours):
 
Tides and Currents Weather Stations Pressure Air Temp Water Temp Dewpoint Dewpoint Depression Visibility Wind Speed Wind Dir Waves Ship Positions

Caribbean Princess

Operator: Princess Cruises

Last reported at 2017-Oct-21 22:55 UTC. Time now 2017-Oct-23 02:09 UTC.
Position N 26°09' W 079°29'.

Type: Passenger vessel. MMSI: 310423000.

Date/timePositionNaut miles runAvg speedWind from/ knotsBaromVisibWave heightAir tempDewpointWater temp
2017-Oct-21 22:55N 26°09' W 079°29'818.1
2017-Oct-21 22:30N 26°08' W 079°37'918.1
2017-Oct-21 22:00N 26°07' W 079°47'918.1
2017-Oct-21 21:30N 26°06' W 079°57'714.3
2017-Oct-21 21:00N 26°05' W 080°05'2 3.3
2017-Oct-21 20:23N 26°05' W 080°07'0 0.0
2017-Oct-21 19:56N 26°05' W 080°07'0 0.0
2017-Oct-21 19:26N 26°05' W 080°07'0 0.0
2017-Oct-21 18:56N 26°05' W 080°07'0 0.0
2017-Oct-21 18:26N 26°05' W 080°07'0 0.0
2017-Oct-21 17:59N 26°05' W 080°07'0 0.0
2017-Oct-21 17:29N 26°05' W 080°07'0 0.0
2017-Oct-21 16:59N 26°05' W 080°07'0 0.0
2017-Oct-21 16:29N 26°05' W 080°07'0 0.0
2017-Oct-21 15:59N 26°05' W 080°07'0 0.0
2017-Oct-21 15:26N 26°05' W 080°07'0 0.0
2017-Oct-21 14:59N 26°05' W 080°07'0 0.0
2017-Oct-21 14:29N 26°05' W 080°07'0 0.0
2017-Oct-21 13:29N 26°05' W 080°07'0 0.0
2017-Oct-21 12:59N 26°05' W 080°07'0 0.0
2017-Oct-21 12:29N 26°05' W 080°07'0 0.0
2017-Oct-21 11:59N 26°05' W 080°07'0 0.0
2017-Oct-21 11:29N 26°05' W 080°07'0 0.0
2017-Oct-21 10:50N 26°05' W 080°07'0 0.0
2017-Oct-21 10:20N 26°05' W 080°07'0 0.2
2017-Oct-21 10:00N 26°05' W 080°07'3 5.1
2017-Oct-21 09:30N 26°06' W 080°04'5 9.6
2017-Oct-21 09:00N 26°05' W 079°59'510.8
2017-Oct-21 08:30N 26°05' W 079°53'816.2
2017-Oct-21 08:00N 25°60' W 079°46'918.3
2017-Oct-21 07:30N 25°53' W 079°39'919.3
2017-Oct-21 07:00N 25°44' W 079°37'1019.2
2017-Oct-21 06:30N 25°34' W 079°35'918.7
2017-Oct-21 06:00N 25°25' W 079°33'  
2017-Oct-18 15:00N 12°30' W 070°00'151 4.2 090 / 301010.810.8 31.025.430.0
2017-Oct-17 03:00N 11°36' W 067°36'23012.1 090 / 201012.710.8 29.023.229.0
2017-Oct-16 08:00N 11°24' W 063°42'6513.0 100 / 201011.010.8 28.023.729.0
2017-Oct-16 03:00N 11°18' W 062°36'123 5.1 110 / 201009.410.8 27.024.129.0
2017-Oct-15 03:00N 11°54' W 060°36'105 4.4 090 / 201009.810.8 29.024.830.0
2017-Oct-14 03:00N 13°36' W 061°00'5214.3 080 / 181010.810.8 27.024.129.0
2017-Oct-13 23:21N 14°23' W 061°22'810.3
2017-Oct-13 22:33N 14°31' W 061°19'111.1
2017-Oct-13 22:30N 14°31' W 061°18'612.3
2017-Oct-13 22:01N 14°33' W 061°13'712.2
2017-Oct-13 21:28N 14°35' W 061°06'2 4.1
2017-Oct-13 21:00N 14°36' W 061°04'0 0.0
2017-Oct-13 20:30N 14°36' W 061°04'0 0.0
2017-Oct-13 20:00N 14°36' W 061°04'0 0.0
2017-Oct-13 17:02N 14°36' W 061°04'0 0.0
2017-Oct-13 17:00N 14°36' W 061°04'0 0.0
2017-Oct-13 16:29N 14°36' W 061°04'0 0.0
2017-Oct-13 15:59N 14°36' W 061°04'0 0.0
2017-Oct-13 15:29N 14°36' W 061°04'0 0.0
2017-Oct-13 14:59N 14°36' W 061°04'0 0.0
2017-Oct-13 14:29N 14°36' W 061°04'0 0.0
2017-Oct-13 13:51N 14°36' W 061°04'0 0.0
2017-Oct-13 13:28N 14°36' W 061°04'0 0.0
2017-Oct-13 12:58N 14°36' W 061°04'0 0.0
2017-Oct-13 12:28N 14°36' W 061°04'0 0.0
2017-Oct-13 11:58N 14°36' W 061°04'0 0.0
2017-Oct-13 11:19N 14°36' W 061°04'0 1.4
2017-Oct-13 11:00N 14°36' W 061°05'5 9.9
2017-Oct-13 10:30N 14°36' W 061°10'612.7
2017-Oct-13 10:00N 14°39' W 061°16'9213.1
2017-Oct-13 03:00N 16°00' W 062°00'915.1 050 / 171011.410.8 29.027.630.0
2017-Oct-13 02:22N 16°09' W 062°02'513.8
2017-Oct-13 02:00N 16°14' W 062°02'714.2
2017-Oct-13 01:30N 16°21' W 062°03'714.0
2017-Oct-13 01:00N 16°28' W 062°03'713.6
2017-Oct-13 00:30N 16°35' W 062°03'713.4
2017-Oct-13 00:00N 16°42' W 062°02'713.5
2017-Oct-12 23:30N 16°49' W 062°02'713.5
2017-Oct-12 23:01N 16°55' W 062°02'713.3
2017-Oct-12 22:31N 17°02' W 062°01'612.6
2017-Oct-12 22:01N 17°08' W 061°59'611.5
2017-Oct-12 21:31N 17°08' W 061°53'2 3.9
2017-Oct-12 20:59N 17°07' W 061°51'0 0.0
2017-Oct-12 20:29N 17°07' W 061°51'0 0.0
2017-Oct-12 19:59N 17°07' W 061°51'0 0.0
2017-Oct-12 19:29N 17°07' W 061°51'0 0.0
2017-Oct-12 18:59N 17°07' W 061°51'0 0.0
2017-Oct-12 18:29N 17°07' W 061°51'0 0.0
2017-Oct-12 17:59N 17°07' W 061°51'0 0.0
2017-Oct-12 17:29N 17°07' W 061°51'0 0.0
2017-Oct-12 16:59N 17°07' W 061°51'0 0.0
2017-Oct-12 16:29N 17°07' W 061°51'0 0.0
2017-Oct-12 15:59N 17°07' W 061°51'0 0.0
2017-Oct-12 15:29N 17°07' W 061°51'0 0.0
2017-Oct-12 15:01N 17°07' W 061°51'0 0.0
2017-Oct-12 14:26N 17°07' W 061°51'0 0.0
2017-Oct-12 13:59N 17°07' W 061°51'0 0.0
2017-Oct-12 13:28N 17°07' W 061°51'0 0.0
2017-Oct-12 12:58N 17°07' W 061°51'0 0.0
2017-Oct-12 12:28N 17°07' W 061°51'0 0.0
2017-Oct-12 11:52N 17°07' W 061°51'0 0.0
2017-Oct-12 11:28N 17°07' W 061°51'1 1.6
2017-Oct-12 11:00N 17°07' W 061°52'5 9.3
2017-Oct-12 10:30N 17°09' W 061°56'611.5
2017-Oct-12 10:00N 17°11' W 062°02'611.1
2017-Oct-12 09:30N 17°13' W 062°07'611.2
2017-Oct-12 09:00N 17°08' W 062°10'612.0
2017-Oct-12 08:30N 17°02' W 062°11'611.8
2017-Oct-12 08:00N 16°56' W 062°13'611.8
2017-Oct-12 07:30N 16°52' W 062°17'611.7
2017-Oct-12 07:00N 16°48' W 062°22'611.6
2017-Oct-12 06:30N 16°44' W 062°26'611.6
2017-Oct-12 06:00N 16°41' W 062°31'611.6
2017-Oct-12 05:30N 16°37' W 062°35'611.7
2017-Oct-12 05:00N 16°33' W 062°40'611.0
2017-Oct-12 04:28N 16°30' W 062°45'511.2
2017-Oct-12 04:00N 16°31' W 062°51'3181.3
2017-Oct-12 04:00N 16°30' W 062°48'917.7 080 / 101012.110.8 29.027.630.0
2017-Oct-12 03:30N 16°35' W 062°56'  

Dump ship's entire track history